Time;durP1;ratioP1;P1;durP2;ratioP2;P2;SDS_P1;SDS_P2;PMS_P1;PMS_P2;Temp;Humidity;BMP_temperature;BMP_pressure;BME280_temperature;BME280_humidity;BME280_pressure;Samples;Min_cycle;Max_cycle;Signal;HPM_P1;HPM_P2
2022/01/06 00:01:05;;;;;;;;;35.50;35.00;;;;;6.86;100.00;100243.66;6166536;23;11494;-71
2022/01/06 00:04:00;;;;;;;;;42.25;39.25;;;;;6.79;100.00;100246.84;6186177;23;11522;-71
2022/01/06 00:06:56;;;;;;;;;42.00;39.00;;;;;6.90;100.00;100244.63;6186282;23;12213;-71
2022/01/06 00:09:52;;;;;;;;;39.00;35.50;;;;;6.92;100.00;100247.88;6186222;23;11526;-71
2022/01/06 00:13:05;;;;;;;;;42.50;41.00;;;;;6.97;100.00;100247.72;6186285;23;11518;-71
2022/01/06 00:16:12;;;;;;;;;44.50;41.50;;;;;6.91;100.00;100247.06;6186348;23;11538;-71
2022/01/06 00:25:18;;;;;;;;;41.25;38.00;;;;;6.96;100.00;100246.91;6184585;23;11541;-71
2022/01/06 00:28:14;;;;;;;;;41.50;38.25;;;;;6.99;100.00;100252.94;6185032;23;11602;-72
2022/01/06 00:31:09;;;;;;;;;44.00;40.75;;;;;7.03;100.00;100253.91;6184969;23;11505;-71
2022/01/06 00:34:10;;;;;;;;;42.00;38.75;;;;;6.99;100.00;100250.19;6184853;23;11546;-71
2022/01/06 00:37:07;;;;;;;;;47.25;41.50;;;;;7.07;100.00;100246.66;6184878;23;11507;-72
2022/01/06 00:40:03;;;;;;;;;49.75;42.25;;;;;7.01;100.00;100254.22;6183835;23;11510;-71
2022/01/06 00:42:58;;;;;;;;;51.25;44.75;;;;;7.04;100.00;100241.78;6165189;23;11506;-72
2022/01/06 00:45:54;;;;;;;;;47.75;41.75;;;;;7.07;100.00;100235.66;6183941;23;11531;-71
2022/01/06 00:48:50;;;;;;;;;54.25;46.75;;;;;7.04;100.00;100239.03;6184881;23;11597;-71
2022/01/06 00:51:45;;;;;;;;;51.50;44.25;;;;;7.02;100.00;100250.34;6184339;23;11536;-72
2022/01/06 00:54:44;;;;;;;;;46.00;41.75;;;;;6.98;100.00;100252.13;6184429;23;11635;-71
2022/01/06 00:57:39;;;;;;;;;45.25;39.75;;;;;6.95;100.00;100239.00;6184605;23;11626;-72
2022/01/06 01:00:40;;;;;;;;;38.25;37.75;;;;;6.95;100.00;100245.31;6184530;23;11600;-71
2022/01/06 01:03:35;;;;;;;;;52.00;43.50;;;;;7.00;100.00;100247.09;6184763;23;11609;-71
2022/01/06 01:06:31;;;;;;;;;38.50;34.00;;;;;6.94;100.00;100235.44;6184220;23;11544;-70
2022/01/06 01:09:26;;;;;;;;;52.50;44.25;;;;;6.89;100.00;100229.25;6184638;23;11532;-72
2022/01/06 01:12:25;;;;;;;;;48.25;40.50;;;;;6.90;100.00;100225.38;6184522;23;11597;-71
2022/01/06 01:15:22;;;;;;;;;43.25;38.00;;;;;6.82;100.00;100224.22;6185274;23;11511;-71
2022/01/06 01:18:19;;;;;;;;;34.50;32.25;;;;;6.94;100.00;100227.19;6164161;23;12245;-71
2022/01/06 01:21:15;;;;;;;;;43.50;38.00;;;;;7.02;100.00;100236.59;6184309;23;11581;-71
2022/01/06 01:23:43;;;;;;;;;41.75;38.50;;;;;6.94;100.00;100229.13;6183472;23;11589;-71
2022/01/06 01:26:39;;;;;;;;;36.25;35.75;;;;;6.96;100.00;100235.91;6185065;23;12276;-71
2022/01/06 01:29:51;;;;;;;;;45.75;39.50;;;;;6.95;100.00;100223.31;6185101;23;12324;-71
2022/01/06 01:32:50;;;;;;;;;39.00;38.00;;;;;7.06;100.00;100225.78;6185286;23;11576;-71
2022/01/06 01:35:46;;;;;;;;;23.25;18.25;;;;;7.04;100.00;100217.03;6184385;23;11636;-71
2022/01/06 01:38:41;;;;;;;;;35.75;35.25;;;;;6.98;100.00;100219.13;6185346;23;11559;-71
2022/01/06 01:41:37;;;;;;;;;36.50;35.50;;;;;7.01;100.00;100218.47;6185441;23;11679;-72
2022/01/06 01:44:34;;;;;;;;;45.25;42.00;;;;;6.99;100.00;100230.94;6185065;23;11588;-71
2022/01/06 01:47:40;;;;;;;;;39.75;37.75;;;;;6.88;100.00;100236.69;6185178;23;11597;-70
2022/01/06 01:50:35;;;;;;;;;38.75;36.00;;;;;7.00;100.00;100241.59;6185061;23;11571;-71
2022/01/06 01:53:31;;;;;;;;;43.00;39.25;;;;;6.89;100.00;100238.31;6185222;23;11579;-71
2022/01/06 01:56:26;;;;;;;;;39.00;37.75;;;;;6.82;100.00;100232.47;6185222;23;11719;-71
2022/01/06 01:59:22;;;;;;;;;42.75;39.00;;;;;6.83;100.00;100220.38;6184732;23;11582;-72
2022/01/06 02:02:17;;;;;;;;;43.00;38.50;;;;;6.89;100.00;100224.56;6184685;23;11599;-72
2022/01/06 02:05:13;;;;;;;;;35.75;35.75;;;;;6.78;100.00;100222.44;6184559;23;11580;-72
2022/01/06 02:08:09;;;;;;;;;33.50;33.50;;;;;6.74;100.00;100218.69;6184716;23;12370;-71
2022/01/06 02:11:05;;;;;;;;;37.50;35.50;;;;;6.72;100.00;100213.50;6184941;23;11570;-71
2022/01/06 02:14:04;;;;;;;;;36.75;33.50;;;;;6.79;100.00;100218.56;6183413;23;11574;-71
2022/01/06 02:17:00;;;;;;;;;43.25;38.75;;;;;6.63;100.00;100220.91;6183507;23;11571;-70
2022/01/06 02:20:00;;;;;;;;;32.00;31.25;;;;;6.73;100.00;100228.88;6181223;23;11552;-71
2022/01/06 02:22:56;;;;;;;;;21.00;21.00;;;;;6.68;100.00;100212.53;6183479;23;11544;-71
2022/01/06 02:25:51;;;;;;;;;24.50;24.50;;;;;6.67;100.00;100205.41;6182617;23;11571;-71
2022/01/06 02:28:47;;;;;;;;;34.75;34.00;;;;;6.69;100.00;100206.72;6182414;23;11530;-72
2022/01/06 02:31:45;;;;;;;;;37.00;35.50;;;;;6.73;100.00;100228.06;6182354;23;11545;-72
2022/01/06 02:34:42;;;;;;;;;32.25;32.25;;;;;6.72;100.00;100218.19;6182444;23;11554;-72
2022/01/06 02:37:37;;;;;;;;;41.25;38.00;;;;;6.64;100.00;100228.84;6162788;23;11692;-72
2022/01/06 02:40:33;;;;;;;;;29.75;29.75;;;;;6.70;100.00;100215.78;6182195;23;12219;-71
2022/01/06 02:43:30;;;;;;;;;37.50;36.50;;;;;6.51;100.00;100216.00;6182246;23;11618;-72
2022/01/06 02:46:25;;;;;;;;;37.25;35.75;;;;;6.39;100.00;100213.84;6182382;23;12276;-72
2022/01/06 02:49:21;;;;;;;;;31.75;29.50;;;;;6.36;100.00;100202.66;6182035;23;11539;-72
2022/01/06 02:52:16;;;;;;;;;34.00;34.00;;;;;6.32;100.00;100224.44;6182120;23;11511;-72
2022/01/06 02:55:14;;;;;;;;;37.00;35.00;;;;;6.30;100.00;100204.75;6183234;23;11518;-72
2022/01/06 02:58:09;;;;;;;;;23.00;23.00;;;;;6.26;100.00;100227.63;6183435;23;11509;-72
2022/01/06 03:01:05;;;;;;;;;36.00;32.00;;;;;6.21;100.00;100223.09;6183722;23;11504;-72
2022/01/06 03:04:00;;;;;;;;;33.50;31.25;;;;;6.12;100.00;100214.78;6183773;23;11520;-72
2022/01/06 03:06:56;;;;;;;;;44.50;36.50;;;;;6.08;100.00;100216.53;6183747;23;11623;-72
2022/01/06 03:09:55;;;;;;;;;40.25;29.25;;;;;6.10;100.00;100211.53;6183772;23;11619;-72
2022/01/06 03:12:50;;;;;;;;;26.50;26.50;;;;;6.03;100.00;100216.66;6163708;23;11521;-71
2022/01/06 03:15:46;;;;;;;;;28.50;27.00;;;;;6.01;100.00;100207.13;6183228;23;11515;-72
2022/01/06 03:18:41;;;;;;;;;27.00;26.25;;;;;5.96;100.00;100219.03;6183660;23;11531;-72
2022/01/06 03:21:37;;;;;;;;;35.00;31.00;;;;;5.98;100.00;100208.56;6183338;23;11509;-72
2022/01/06 03:24:32;;;;;;;;;27.50;26.00;;;;;5.95;100.00;100211.09;6183064;23;11629;-72
2022/01/06 03:27:28;;;;;;;;;41.50;32.75;;;;;6.02;100.00;100227.97;6183525;23;11638;-72
2022/01/06 03:30:24;;;;;;;;;34.50;30.25;;;;;5.98;100.00;100226.94;6183593;23;11664;-72
2022/01/06 03:33:19;;;;;;;;;33.75;30.50;;;;;5.94;100.00;100232.25;6183810;23;11501;-72
2022/01/06 03:36:15;;;;;;;;;29.75;26.25;;;;;6.03;100.00;100226.84;6183439;23;11551;-72
2022/01/06 03:39:10;;;;;;;;;47.00;38.00;;;;;6.00;100.00;100222.78;6183649;23;11614;-72
2022/01/06 03:42:06;;;;;;;;;30.25;28.00;;;;;5.99;100.00;100217.59;6183603;23;11532;-72
2022/01/06 03:45:05;;;;;;;;;14.75;13.25;;;;;5.97;100.00;100217.91;6183357;23;11515;-71
2022/01/06 03:48:03;;;;;;;;;38.75;31.75;;;;;6.04;100.00;100209.22;6183684;23;11528;-72
2022/01/06 03:50:59;;;;;;;;;45.25;37.25;;;;;5.90;100.00;100209.25;6163773;23;11526;-72
2022/01/06 03:53:54;;;;;;;;;40.00;36.75;;;;;6.01;100.00;100205.19;6183865;23;11618;-71
2022/01/06 03:56:50;;;;;;;;;31.50;26.75;;;;;5.99;100.00;100198.41;6184891;23;12252;-72
2022/01/06 03:59:46;;;;;;;;;26.25;26.25;;;;;6.02;100.00;100206.00;6185109;23;11624;-72
2022/01/06 04:02:42;;;;;;;;;37.75;34.00;;;;;6.01;100.00;100218.09;6185310;23;11547;-72
2022/01/06 04:05:38;;;;;;;;;53.00;40.25;;;;;6.02;100.00;100201.31;6185086;23;11660;-72
2022/01/06 04:08:33;;;;;;;;;34.50;31.00;;;;;6.03;100.00;100208.41;6185251;23;11527;-72
2022/01/06 04:11:29;;;;;;;;;56.00;35.00;;;;;6.06;100.00;100201.53;6184084;23;11518;-72
2022/01/06 04:14:25;;;;;;;;;30.25;26.75;;;;;5.96;100.00;100201.75;6185289;23;11509;-72
2022/01/06 04:17:20;;;;;;;;;29.50;27.50;;;;;6.00;100.00;100200.00;6185182;23;11548;-72
2022/01/06 04:20:15;;;;;;;;;29.50;27.75;;;;;5.97;100.00;100197.88;6185146;23;11601;-72
2022/01/06 04:23:11;;;;;;;;;44.00;34.75;;;;;6.00;100.00;100213.75;6184766;23;11509;-72
2022/01/06 04:26:07;;;;;;;;;49.75;36.00;;;;;6.06;100.00;100221.53;6185018;23;11500;-72
2022/01/06 04:29:02;;;;;;;;;29.75;25.25;;;;;5.95;100.00;100216.59;6184252;23;11523;-73
2022/01/06 04:31:58;;;;;;;;;41.50;33.25;;;;;5.98;100.00;100221.44;6185000;23;11562;-72
2022/01/06 04:34:53;;;;;;;;;21.00;21.00;;;;;6.04;100.00;100221.03;6184872;23;11546;-73
2022/01/06 04:37:49;;;;;;;;;20.50;20.00;;;;;6.04;100.00;100218.28;6184871;23;11505;-73
2022/01/06 04:40:45;;;;;;;;;27.25;27.25;;;;;6.11;100.00;100220.59;6184887;23;11514;-72
2022/01/06 04:43:40;;;;;;;;;32.00;29.75;;;;;6.10;100.00;100218.97;6185030;23;11551;-72
2022/01/06 04:46:36;;;;;;;;;29.50;27.25;;;;;6.06;100.00;100209.75;6184932;23;11517;-72
2022/01/06 04:49:32;;;;;;;;;37.50;26.00;;;;;5.97;100.00;100208.84;6184990;23;12302;-72
2022/01/06 04:52:28;;;;;;;;;29.75;27.25;;;;;6.01;100.00;100212.63;6184629;23;11557;-73
2022/01/06 04:55:23;;;;;;;;;30.50;30.50;;;;;5.99;100.00;100215.69;6184703;23;11586;-72
2022/01/06 04:58:19;;;;;;;;;35.00;34.00;;;;;5.93;100.00;100221.59;6184692;23;11521;-73
2022/01/06 05:01:15;;;;;;;;;28.25;26.25;;;;;5.95;100.00;100211.91;6185456;23;11544;-72
2022/01/06 05:04:10;;;;;;;;;22.75;21.50;;;;;6.04;100.00;100223.75;6183984;23;11662;-72
2022/01/06 05:07:06;;;;;;;;;39.25;31.25;;;;;6.05;100.00;100219.91;6166056;23;11506;-73
2022/01/06 05:10:02;;;;;;;;;55.25;35.00;;;;;6.04;100.00;100221.03;6184300;23;11552;-72
2022/01/06 05:12:58;;;;;;;;;26.00;26.00;;;;;6.09;100.00;100218.16;6184855;23;11539;-70
2022/01/06 05:15:53;;;;;;;;;40.00;33.50;;;;;6.12;100.00;100216.72;6184156;23;11576;-71
2022/01/06 05:18:49;;;;;;;;;36.25;23.75;;;;;6.13;100.00;100210.94;6184413;23;12238;-71
2022/01/06 05:21:44;;;;;;;;;42.50;31.75;;;;;6.12;100.00;100214.78;6184016;23;12456;-71
2022/01/06 05:24:40;;;;;;;;;27.25;24.25;;;;;6.13;100.00;100213.69;6184148;23;12334;-71
2022/01/06 05:27:35;;;;;;;;;41.25;31.50;;;;;6.15;100.00;100213.38;6184444;23;11519;-72
2022/01/06 05:30:31;;;;;;;;;28.75;27.75;;;;;6.13;100.00;100221.06;6184165;23;11517;-73
2022/01/06 05:33:27;;;;;;;;;27.25;27.25;;;;;6.16;100.00;100222.41;6185336;23;11510;-72
2022/01/06 05:36:22;;;;;;;;;23.25;23.25;;;;;6.26;100.00;100228.44;6184269;23;11488;-72
2022/01/06 05:39:18;;;;;;;;;34.00;31.50;;;;;6.23;100.00;100229.09;6184218;23;11543;-72
2022/01/06 05:42:14;;;;;;;;;29.25;27.75;;;;;6.29;100.00;100227.84;6183775;23;12232;-72
2022/01/06 05:45:12;;;;;;;;;46.50;36.00;;;;;6.37;100.00;100237.25;6183500;23;11527;-72
2022/01/06 05:48:07;;;;;;;;;35.50;30.50;;;;;6.35;100.00;100240.28;6184209;23;11532;-72
2022/01/06 05:51:03;;;;;;;;;39.50;32.75;;;;;6.30;100.00;100250.63;6184108;23;11506;-72
2022/01/06 05:53:58;;;;;;;;;29.75;29.25;;;;;6.37;100.00;100249.06;6183611;23;11571;-72
2022/01/06 05:56:54;;;;;;;;;31.50;29.00;;;;;6.33;100.00;100239.81;6183896;23;11547;-72
2022/01/06 05:59:49;;;;;;;;;28.00;26.25;;;;;6.34;100.00;100233.19;6181454;23;11530;-71
2022/01/06 06:02:45;;;;;;;;;27.75;27.75;;;;;6.36;100.00;100236.44;6184084;23;11527;-71
2022/01/06 06:05:41;;;;;;;;;33.00;25.00;;;;;6.39;100.00;100241.31;6184089;23;11520;-72
2022/01/06 06:08:37;;;;;;;;;29.00;28.75;;;;;6.47;100.00;100245.22;6183837;23;11526;-72
2022/01/06 06:11:32;;;;;;;;;34.25;30.75;;;;;6.54;100.00;100245.59;6184036;23;11561;-72
2022/01/06 06:14:28;;;;;;;;;37.50;31.75;;;;;6.57;100.00;100244.13;6183843;23;11560;-71
2022/01/06 06:17:23;;;;;;;;;40.50;37.25;;;;;6.59;100.00;100245.44;6182133;23;11635;-72
2022/01/06 06:20:20;;;;;;;;;33.50;32.00;;;;;6.58;100.00;100241.06;6182595;23;11652;-72
2022/01/06 06:23:15;;;;;;;;;28.75;25.75;;;;;6.61;100.00;100243.22;6183695;23;12292;-72
2022/01/06 06:26:11;;;;;;;;;27.50;27.25;;;;;6.69;100.00;100236.13;6183410;23;11519;-72
2022/01/06 06:29:07;;;;;;;;;25.75;25.25;;;;;6.65;100.00;100235.13;6181971;23;11610;-72
2022/01/06 06:32:04;;;;;;;;;27.50;27.50;;;;;6.76;100.00;100241.19;6183880;23;11509;-72
2022/01/06 06:35:00;;;;;;;;;29.50;29.50;;;;;6.77;100.00;100238.13;6183764;23;11499;-72
2022/01/06 06:37:57;;;;;;;;;30.00;27.25;;;;;6.78;100.00;100244.41;6182800;23;11495;-73
2022/01/06 06:40:53;;;;;;;;;42.75;29.25;;;;;6.68;100.00;100246.31;6183510;23;11438;-73
2022/01/06 06:43:49;;;;;;;;;37.25;31.00;;;;;6.80;100.00;100242.16;6183553;23;11564;-73
2022/01/06 06:46:44;;;;;;;;;28.25;28.25;;;;;6.86;100.00;100238.16;6182378;23;11569;-72
2022/01/06 06:49:40;;;;;;;;;35.00;28.00;;;;;6.89;100.00;100240.25;6183590;23;12216;-73
2022/01/06 06:52:35;;;;;;;;;28.50;28.25;;;;;6.93;100.00;100241.25;6183133;23;11499;-70
2022/01/06 06:55:31;;;;;;;;;33.50;32.50;;;;;6.92;100.00;100250.63;6183305;23;11621;-71
2022/01/06 06:58:27;;;;;;;;;35.75;32.00;;;;;6.92;100.00;100243.19;6183157;23;11537;-70
2022/01/06 07:01:23;;;;;;;;;27.25;27.25;;;;;6.92;100.00;100240.44;6182962;23;12312;-71
2022/01/06 07:04:19;;;;;;;;;27.75;27.75;;;;;6.90;100.00;100231.72;6183480;23;11437;-69
2022/01/06 07:07:14;;;;;;;;;33.25;27.75;;;;;6.88;100.00;100230.38;6183042;23;11543;-70
2022/01/06 07:10:11;;;;;;;;;32.00;32.00;;;;;6.94;100.00;100242.88;6184261;23;11537;-69
2022/01/06 07:13:06;;;;;;;;;26.00;26.00;;;;;7.02;100.00;100252.28;6183456;23;11543;-69
2022/01/06 07:16:02;;;;;;;;;26.00;25.25;;;;;7.06;100.00;100258.78;6183165;23;11523;-69
2022/01/06 07:18:58;;;;;;;;;24.50;24.50;;;;;6.85;100.00;100259.34;6183211;23;11506;-70
2022/01/06 07:21:53;;;;;;;;;28.75;28.75;;;;;6.87;100.00;100268.06;6183212;23;11525;-69
2022/01/06 07:24:49;;;;;;;;;26.00;26.00;;;;;6.90;100.00;100270.19;6183510;23;11478;-69
2022/01/06 07:27:44;;;;;;;;;37.50;34.50;;;;;7.58;100.00;100270.72;6183840;23;11433;-70
2022/01/06 07:30:40;;;;;;;;;28.50;27.00;;;;;7.43;100.00;100263.72;6185418;23;11532;-72
2022/01/06 07:33:36;;;;;;;;;32.00;31.75;;;;;7.45;100.00;100269.75;6184598;23;11462;-72
2022/01/06 07:36:31;;;;;;;;;25.25;25.25;;;;;7.47;100.00;100283.19;6185114;23;11578;-71
2022/01/06 07:39:27;;;;;;;;;26.00;26.00;;;;;7.36;100.00;100287.34;6184983;23;11448;-71
2022/01/06 07:42:22;;;;;;;;;26.25;26.25;;;;;7.17;100.00;100280.16;6184852;23;11473;-72
2022/01/06 07:45:19;;;;;;;;;30.00;29.25;;;;;7.24;100.00;100276.94;6185215;23;11485;-72
2022/01/06 07:48:25;;;;;;;;;29.25;26.00;;;;;7.17;100.00;100277.41;6184358;23;11465;-73
2022/01/06 07:51:21;;;;;;;;;30.50;30.50;;;;;7.27;100.00;100276.31;6184912;23;11483;-72
2022/01/06 07:54:17;;;;;;;;;29.75;29.25;;;;;7.28;100.00;100279.88;6185053;23;11574;-73
2022/01/06 07:57:13;;;;;;;;;26.25;26.25;;;;;7.15;100.00;100295.38;6185659;23;12236;-72
2022/01/06 08:00:09;;;;;;;;;29.00;28.75;;;;;7.19;100.00;100293.59;6184927;23;11581;-71
2022/01/06 08:03:04;;;;;;;;;36.00;34.00;;;;;7.34;100.00;100284.09;6186041;23;11451;-70
2022/01/06 08:06:00;;;;;;;;;31.25;31.25;;;;;7.43;100.00;100285.75;6186002;23;11658;-71
2022/01/06 08:08:55;;;;;;;;;36.00;32.50;;;;;7.50;100.00;100290.78;6184537;23;11451;-71
2022/01/06 08:11:51;;;;;;;;;32.50;32.00;;;;;7.58;100.00;100284.47;6185022;23;11470;-71
2022/01/06 08:14:46;;;;;;;;;33.50;32.75;;;;;7.51;100.00;100275.88;6184625;23;12290;-71
2022/01/06 08:17:42;;;;;;;;;37.75;34.50;;;;;7.59;100.00;100268.78;6184647;23;11456;-71
2022/01/06 08:20:38;;;;;;;;;31.50;31.50;;;;;7.53;100.00;100282.72;6184494;23;11562;-71
2022/01/06 08:23:34;;;;;;;;;33.50;33.50;;;;;7.66;100.00;100285.63;6180539;23;11644;-71
2022/01/06 08:26:30;;;;;;;;;27.00;27.00;;;;;7.65;100.00;100270.25;6185861;23;11485;-70
2022/01/06 08:29:26;;;;;;;;;29.75;29.75;;;;;7.68;100.00;100259.44;6185850;23;11592;-71
2022/01/06 08:32:22;;;;;;;;;39.00;37.50;;;;;7.70;100.00;100256.34;6185849;23;11493;-71
2022/01/06 08:35:17;;;;;;;;;32.25;32.25;;;;;7.58;100.00;100251.47;6185757;23;11525;-71
2022/01/06 08:38:13;;;;;;;;;37.50;36.25;;;;;7.61;100.00;100253.59;6181072;23;11616;-70
2022/01/06 08:41:08;;;;;;;;;37.50;36.00;;;;;7.64;100.00;100228.16;6184358;23;12303;-70
2022/01/06 08:44:04;;;;;;;;;32.25;26.75;;;;;7.58;100.00;100223.13;6185699;23;12333;-70
2022/01/06 08:47:01;;;;;;;;;29.00;29.00;;;;;7.65;100.00;100232.53;6185047;23;11692;-70
2022/01/06 08:49:56;;;;;;;;;30.00;29.00;;;;;7.74;100.00;100222.34;6184684;23;11497;-70
2022/01/06 08:52:52;;;;;;;;;35.50;35.50;;;;;7.78;100.00;100217.81;6184361;23;11515;-70
2022/01/06 08:55:47;;;;;;;;;38.00;33.75;;;;;7.75;100.00;100228.66;6184865;23;11586;-70
2022/01/06 08:58:43;;;;;;;;;32.25;32.00;;;;;7.83;100.00;100221.56;6183929;23;11527;-70
2022/01/06 09:01:39;;;;;;;;;37.50;36.75;;;;;7.84;100.00;100218.47;6184677;23;11581;-70
2022/01/06 09:04:34;;;;;;;;;34.00;33.25;;;;;7.95;100.00;100221.69;6184879;23;11563;-68
2022/01/06 09:07:30;;;;;;;;;39.00;37.25;;;;;7.89;100.00;100222.97;6184829;23;11514;-68
2022/01/06 09:10:29;;;;;;;;;41.00;37.50;;;;;7.85;100.00;100225.59;6184998;23;11518;-67
2022/01/06 09:13:25;;;;;;;;;35.75;34.00;;;;;7.72;100.00;100240.31;6186344;23;11603;-68
2022/01/06 09:16:21;;;;;;;;;41.75;40.00;;;;;7.67;100.00;100246.81;6185244;23;11703;-68
2022/01/06 09:19:16;;;;;;;;;40.75;38.75;;;;;7.81;100.00;100244.69;6184494;23;11556;-68
2022/01/06 09:22:12;;;;;;;;;38.50;37.00;;;;;7.82;100.00;100253.78;6183598;23;11586;-68
2022/01/06 09:25:09;;;;;;;;;39.00;38.00;;;;;7.87;100.00;100255.53;6184307;23;12224;-67
2022/01/06 09:28:04;;;;;;;;;40.50;38.25;;;;;7.95;100.00;100250.03;6182425;23;11529;-67
2022/01/06 09:31:00;;;;;;;;;34.00;34.00;;;;;8.02;100.00;100253.13;6183531;23;11554;-71
2022/01/06 09:33:56;;;;;;;;;35.75;34.50;;;;;8.10;100.00;100254.25;6184060;23;11627;-72
2022/01/06 09:36:51;;;;;;;;;31.50;31.50;;;;;8.13;100.00;100250.03;6183363;23;11489;-73
2022/01/06 09:39:47;;;;;;;;;31.75;30.50;;;;;8.08;100.00;100249.06;6182750;23;11480;-71
2022/01/06 09:42:22;;;;;;;;;31.00;28.50;;;;;8.09;100.00;100253.44;6193199;23;11435;-71
2022/01/06 09:44:50;;;;;;;;;28.25;28.25;;;;;7.79;100.00;100252.47;6193677;23;11446;-72
2022/01/06 09:47:21;;;;;;;;;30.50;30.50;;;;;8.01;100.00;100251.50;6193637;23;11465;-71
2022/01/06 09:50:08;;;;;;;;;32.25;31.75;;;;;8.07;100.00;100250.22;6162880;23;12159;-73
2022/01/06 09:53:03;;;;;;;;;34.75;34.75;;;;;8.05;100.00;100246.13;6183436;23;11474;-72
2022/01/06 09:55:31;;;;;;;;;30.25;30.25;;;;;8.01;100.00;100246.00;6184859;23;11457;-72
2022/01/06 09:58:07;;;;;;;;;26.50;26.25;;;;;8.19;100.00;100240.47;6192544;23;11573;-69
2022/01/06 10:00:36;;;;;;;;;30.00;29.75;;;;;8.13;100.00;100236.25;6193248;23;11474;-69
2022/01/06 10:03:17;;;;;;;;;28.75;28.50;;;;;8.15;100.00;100245.03;6185760;23;11484;-69
2022/01/06 10:06:25;;;;;;;;;33.75;30.00;;;;;8.04;100.00;100252.78;6183886;23;11562;-68
2022/01/06 10:08:59;;;;;;;;;35.75;34.25;;;;;8.18;100.00;100255.38;6193601;23;11441;-70
2022/01/06 10:11:57;;;;;;;;;24.75;24.75;;;;;8.21;100.00;100252.81;6184547;23;11486;-68
2022/01/06 10:14:43;;;;;;;;;28.75;28.75;;;;;8.35;100.00;100255.38;6183307;23;11528;-68
2022/01/06 10:17:39;;;;;;;;;35.25;33.75;;;;;8.35;100.00;100252.63;6182714;23;11464;-68
2022/01/06 10:20:34;;;;;;;;;32.75;32.75;;;;;8.33;100.00;100255.69;6183789;23;11494;-68
2022/01/06 10:23:30;;;;;;;;;34.25;33.00;;;;;8.43;100.00;100260.06;6183450;23;11499;-70
2022/01/06 10:25:57;;;;;;;;;30.00;30.00;;;;;8.42;100.00;100266.72;6193746;23;11436;-69
2022/01/06 10:28:43;;;;;;;;;34.50;33.25;;;;;8.46;100.00;100253.91;6193840;23;11469;-69
2022/01/06 10:31:38;;;;;;;;;33.25;32.50;;;;;8.29;100.00;100263.00;6183279;23;11524;-70
2022/01/06 10:34:37;;;;;;;;;45.00;40.75;;;;;8.28;100.00;100252.28;6183211;23;11482;-69
2022/01/06 10:37:44;;;;;;;;;30.25;30.25;;;;;8.40;100.00;100260.72;6184200;23;11502;-69
2022/01/06 10:40:40;;;;;;;;;40.50;36.00;;;;;8.46;100.00;100259.44;6183139;23;11467;-70
2022/01/06 10:43:35;;;;;;;;;37.75;36.75;;;;;8.50;100.00;100254.88;6183219;23;11463;-70
2022/01/06 10:46:42;;;;;;;;;40.50;39.00;;;;;8.43;100.00;100243.53;6182839;23;11467;-70
2022/01/06 10:49:14;;;;;;;;;40.25;38.00;;;;;8.55;100.00;100237.38;6155984;23;11498;-69
2022/01/06 10:51:47;;;;;;;;;36.75;36.50;;;;;8.56;100.00;100231.53;6192569;23;11485;-68
2022/01/06 10:54:23;;;;;;;;;47.75;40.25;;;;;8.53;100.00;100236.88;6193076;23;11456;-69
2022/01/06 10:56:59;;;;;;;;;35.50;35.50;;;;;8.42;100.00;100227.34;6192128;23;11501;-69
2022/01/06 10:59:30;;;;;;;;;38.75;37.50;;;;;8.39;100.00;100226.06;6183934;23;11464;-69
2022/01/06 11:01:59;;;;;;;;;37.25;37.00;;;;;8.34;100.00;100221.47;6193304;23;11465;-69
2022/01/06 11:04:54;;;;;;;;;38.00;37.00;;;;;8.44;100.00;100222.31;6184030;23;11484;-68
2022/01/06 11:07:43;;;;;;;;;46.25;41.00;;;;;8.34;100.00;100223.44;6163885;23;11458;-69
2022/01/06 11:10:47;;;;;;;;;34.25;34.25;;;;;8.43;100.00;100228.94;6182391;23;11593;-69
2022/01/06 11:13:51;;;;;;;;;55.75;47.25;;;;;8.30;100.00;100230.75;6182592;23;11538;-69
2022/01/06 11:16:46;;;;;;;;;40.25;37.75;;;;;8.27;100.00;100229.44;6161394;23;11568;-69
2022/01/06 11:19:42;;;;;;;;;41.50;38.75;;;;;8.21;100.00;100232.72;6182795;23;11461;-69
2022/01/06 11:22:48;;;;;;;;;43.50;39.25;;;;;8.12;100.00;100245.66;6182704;23;11466;-67
2022/01/06 11:25:44;;;;;;;;;39.25;37.25;;;;;8.13;100.00;100239.00;6183174;23;11475;-69
2022/01/06 11:28:42;;;;;;;;;57.25;47.75;;;;;8.14;100.00;100237.91;6182821;23;11556;-68
2022/01/06 11:31:21;;;;;;;;;58.25;48.75;;;;;8.19;100.00;100237.72;6193417;23;12262;-68
2022/01/06 11:34:19;;;;;;;;;45.00;41.25;;;;;8.18;100.00;100236.91;6182680;23;11641;-68
2022/01/06 11:36:50;;;;;;;;;49.75;44.25;;;;;8.18;100.00;100241.59;6192953;23;12244;-68
2022/01/06 11:39:45;;;;;;;;;52.00;44.75;;;;;8.11;100.00;100235.78;6182741;23;12143;-68
2022/01/06 11:42:28;;;;;;;;;60.25;49.00;;;;;8.20;100.00;100242.88;6181616;23;11539;-68
2022/01/06 11:44:58;;;;;;;;;59.50;50.50;;;;;8.25;100.00;100231.72;6193050;23;11539;-68
2022/01/06 11:48:09;;;;;;;;;51.50;44.50;;;;;8.23;100.00;100238.69;6183114;23;11494;-68
2022/01/06 11:50:42;;;;;;;;;54.50;45.25;;;;;8.27;100.00;100236.88;6193043;23;11490;-68
2022/01/06 11:53:10;;;;;;;;;55.00;44.50;;;;;8.28;100.00;100244.00;6193075;23;11502;-68
2022/01/06 11:56:13;;;;;;;;;49.25;43.50;;;;;8.23;100.00;100245.00;6183289;23;11523;-68
2022/01/06 11:59:10;;;;;;;;;37.75;33.75;;;;;8.14;100.00;100252.47;6182883;23;11641;-68
2022/01/06 12:02:05;;;;;;;;;42.75;39.25;;;;;8.22;100.00;100251.66;6182321;23;12304;-69
2022/01/06 12:04:33;;;;;;;;;37.50;37.00;;;;;8.32;100.00;100253.25;6167484;23;11535;-69
2022/01/06 12:07:29;;;;;;;;;35.75;32.75;;;;;8.18;100.00;100260.88;6183530;23;11451;-69
2022/01/06 12:10:25;;;;;;;;;24.00;24.00;;;;;8.06;100.00;100261.56;6182312;23;11498;-68
2022/01/06 12:13:20;;;;;;;;;37.25;35.75;;;;;8.21;100.00;100263.81;6162782;23;11463;-67
2022/01/06 12:15:55;;;;;;;;;33.75;33.75;;;;;8.10;100.00;100262.50;6194284;23;11494;-67
2022/01/06 12:18:43;;;;;;;;;34.00;34.00;;;;;7.97;100.00;100257.97;6161990;23;11482;-68
2022/01/06 12:21:39;;;;;;;;;47.00;42.00;;;;;8.00;100.00;100258.16;6184127;23;11512;-68
2022/01/06 12:24:09;;;;;;;;;35.00;34.75;;;;;7.89;100.00;100261.53;6194970;23;12258;-70
2022/01/06 12:27:05;;;;;;;;;40.00;37.50;;;;;7.86;100.00;100263.00;6185247;23;11496;-69
2022/01/06 12:29:39;;;;;;;;;38.50;37.75;;;;;7.88;100.00;100281.94;6193902;23;11483;-69
2022/01/06 12:32:35;;;;;;;;;37.00;36.50;;;;;7.93;100.00;100279.84;6183086;23;12198;-69
2022/01/06 12:35:03;;;;;;;;;35.25;35.25;;;;;7.96;100.00;100279.19;6159862;23;11553;-69
2022/01/06 12:37:35;;;;;;;;;34.00;34.00;;;;;7.91;100.00;100298.66;6169066;23;11461;-69
2022/01/06 12:40:36;;;;;;;;;35.50;33.75;;;;;7.85;100.00;100310.94;6183898;23;11482;-70
2022/01/06 12:43:17;;;;;;;;;40.50;39.25;;;;;7.80;100.00;100314.63;6194289;23;11439;-69
2022/01/06 12:45:46;;;;;;;;;40.75;38.00;;;;;7.84;100.00;100325.84;6194228;23;12174;-70
2022/01/06 12:48:14;;;;;;;;;40.75;37.00;;;;;7.79;100.00;100334.25;6194397;23;12109;-70
2022/01/06 12:50:49;;;;;;;;;53.75;45.75;;;;;7.85;100.00;100332.16;6194239;23;11454;-71
2022/01/06 12:53:25;;;;;;;;;35.50;34.00;;;;;7.84;100.00;100336.84;6168373;23;11504;-72
2022/01/06 12:56:25;;;;;;;;;49.00;44.00;;;;;7.86;100.00;100347.53;6184332;23;11590;-72
2022/01/06 12:58:55;;;;;;;;;41.00;36.75;;;;;7.93;100.00;100348.69;6193917;23;11495;-72
2022/01/06 13:01:45;;;;;;;;;49.75;41.25;;;;;7.97;100.00;100357.91;6186511;23;11530;-71
2022/01/06 13:04:44;;;;;;;;;47.50;41.75;;;;;7.96;100.00;100361.81;6184041;23;11485;-71
2022/01/06 13:07:40;;;;;;;;;47.25;41.25;;;;;7.90;100.00;100359.50;6184016;23;12227;-71
2022/01/06 13:10:08;;;;;;;;;41.75;39.50;;;;;8.00;100.00;100353.72;6193406;23;11526;-72
2022/01/06 13:12:46;;;;;;;;;51.00;43.00;;;;;8.00;100.00;100351.78;6186090;23;11462;-71